Time;durP1;ratioP1;P1;durP2;ratioP2;P2;SDS_P1;SDS_P2;PMS_P1;PMS_P2;Temp;Humidity;BMP_temperature;BMP_pressure;BME280_temperature;BME280_humidity;BME280_pressure;Samples;Min_cycle;Max_cycle;Signal;HPM_P1;HPM_P2
2023/09/14 00:01:25;;;;;;;1.60;1.60;;;17.80;99.90;;;;;;5038532;28;20720;-53
2023/09/14 00:03:52;;;;;;;1.93;1.83;;;17.90;99.90;;;;;;5038824;28;20206;-53
2023/09/14 00:06:19;;;;;;;1.67;0.87;;;17.90;99.90;;;;;;5039532;28;20237;-53
2023/09/14 00:08:47;;;;;;;1.90;1.80;;;17.80;99.90;;;;;;5031677;28;20709;-53
2023/09/14 00:11:14;;;;;;;1.67;1.57;;;17.70;99.90;;;;;;5031871;28;20203;-53
2023/09/14 00:13:41;;;;;;;3.83;2.00;;;17.50;99.90;;;;;;5031690;28;20260;-53
2023/09/14 00:16:08;;;;;;;2.13;2.03;;;17.40;99.90;;;;;;5037725;28;20284;-53
2023/09/14 00:18:35;;;;;;;1.50;1.50;;;17.30;99.90;;;;;;5045751;28;20721;-53
2023/09/14 00:21:02;;;;;;;2.67;2.10;;;17.30;99.90;;;;;;5039404;28;20268;-53
2023/09/14 00:23:29;;;;;;;2.77;2.67;;;17.30;99.90;;;;;;5047022;28;20229;-53
2023/09/14 00:25:58;;;;;;;3.37;3.07;;;17.20;99.90;;;;;;5050434;28;20292;-53
2023/09/14 00:28:25;;;;;;;2.40;2.30;;;17.00;99.90;;;;;;5041604;28;20197;-53
2023/09/14 00:30:53;;;;;;;2.87;2.67;;;16.90;99.90;;;;;;5042150;28;20259;-53
2023/09/14 00:33:20;;;;;;;2.67;2.57;;;17.00;99.90;;;;;;5051261;28;20245;-53
2023/09/14 00:35:47;;;;;;;2.63;2.53;;;17.10;99.90;;;;;;5039493;28;20229;-53
2023/09/14 00:38:14;;;;;;;2.70;2.50;;;17.00;99.90;;;;;;5042752;28;20228;-53
2023/09/14 00:40:42;;;;;;;2.93;2.73;;;17.00;99.90;;;;;;5044064;28;20259;-53
2023/09/14 00:43:10;;;;;;;2.97;2.77;;;17.10;99.90;;;;;;5043548;28;20281;-53
2023/09/14 00:45:37;;;;;;;2.40;2.20;;;17.10;99.90;;;;;;5050687;28;20206;-53
2023/09/14 00:48:04;;;;;;;3.63;2.77;;;17.10;99.90;;;;;;5051434;28;20354;-53
2023/09/14 00:50:32;;;;;;;2.03;1.93;;;17.10;99.90;;;;;;5047169;28;20281;-53
2023/09/14 00:53:04;;;;;;;2.83;2.13;;;17.10;99.90;;;;;;5033377;28;20238;-53
2023/09/14 00:55:31;;;;;;;2.80;2.47;;;17.10;99.90;;;;;;5038869;28;20198;-53
2023/09/14 00:57:58;;;;;;;2.67;2.43;;;17.10;99.90;;;;;;5031140;28;20206;-53
2023/09/14 01:00:27;;;;;;;4.20;2.50;;;17.10;99.90;;;;;;5036458;28;20229;-53
2023/09/14 01:02:56;;;;;;;4.13;3.87;;;17.10;99.90;;;;;;5042702;28;20279;-53
2023/09/14 01:05:28;;;;;;;3.17;3.07;;;17.00;99.90;;;;;;5040388;28;20197;-53
2023/09/14 01:07:55;;;;;;;2.80;2.60;;;17.00;99.90;;;;;;5033350;28;20677;-53
2023/09/14 01:10:23;;;;;;;2.73;2.63;;;17.00;99.90;;;;;;5036688;28;20226;-53
2023/09/14 01:12:50;;;;;;;3.30;3.10;;;16.90;99.90;;;;;;5032617;28;20202;-53
2023/09/14 01:15:20;;;;;;;3.83;3.63;;;16.90;99.90;;;;;;5036676;28;20627;-53
2023/09/14 01:18:00;;;;;;;4.37;4.07;;;16.90;99.90;;;;;;5032934;28;20198;-53
2023/09/14 01:20:57;;;;;;;4.13;3.93;;;16.90;99.90;;;;;;5049556;28;20225;-53
2023/09/14 01:23:37;;;;;;;2.80;2.70;;;17.00;99.90;;;;;;5049502;28;20229;-53
2023/09/14 01:26:07;;;;;;;3.50;3.33;;;17.00;99.90;;;;;;5035643;28;20194;-53
2023/09/14 01:28:34;;;;;;;3.87;3.40;;;17.00;99.90;;;;;;5046375;28;20224;-53
2023/09/14 01:31:01;;;;;;;3.67;3.57;;;17.00;99.90;;;;;;5054596;28;20236;-53
2023/09/14 01:33:29;;;;;;;3.47;3.27;;;17.00;99.90;;;;;;5054603;28;20270;-53
2023/09/14 01:36:03;;;;;;;3.70;3.50;;;17.00;99.90;;;;;;5054162;28;20236;-54
2023/09/14 01:38:32;;;;;;;3.70;3.40;;;17.00;99.90;;;;;;5045667;28;20209;-53
2023/09/14 01:41:00;;;;;;;3.60;3.37;;;17.00;99.90;;;;;;5033640;28;20770;-53
2023/09/14 01:43:30;;;;;;;3.63;3.33;;;17.00;99.90;;;;;;5034629;28;20284;-53
2023/09/14 01:45:57;;;;;;;3.07;2.97;;;17.00;99.90;;;;;;5033952;28;20899;-53
2023/09/14 01:48:24;;;;;;;3.13;2.90;;;17.10;99.90;;;;;;5034499;28;20206;-53
2023/09/14 01:50:51;;;;;;;2.50;2.40;;;17.00;99.90;;;;;;5034333;28;20201;-53
2023/09/14 01:53:18;;;;;;;2.83;2.73;;;17.00;99.90;;;;;;5045804;28;20197;-53
2023/09/14 01:55:45;;;;;;;2.53;2.43;;;17.00;99.90;;;;;;5042475;28;20199;-53
2023/09/14 01:58:12;;;;;;;3.57;3.30;;;17.00;99.90;;;;;;5039395;28;20666;-53
2023/09/14 02:00:40;;;;;;;2.70;2.60;;;17.00;99.90;;;;;;5042167;28;20194;-53
2023/09/14 02:03:07;;;;;;;2.40;2.30;;;17.00;99.90;;;;;;5041578;28;20264;-53
2023/09/14 02:05:35;;;;;;;3.33;3.20;;;16.90;99.90;;;;;;5049521;28;20198;-53
2023/09/14 02:08:02;;;;;;;2.90;2.80;;;16.90;99.90;;;;;;5054011;28;20232;-53
2023/09/14 02:10:29;;;;;;;2.60;2.50;;;16.90;99.90;;;;;;5053886;28;20244;-53
2023/09/14 02:12:56;;;;;;;2.30;2.30;;;16.90;99.90;;;;;;5033937;28;20202;-53
2023/09/14 02:15:23;;;;;;;3.30;3.20;;;16.90;99.90;;;;;;5033396;28;20213;-53
2023/09/14 02:17:52;;;;;;;4.27;4.07;;;17.00;99.90;;;;;;5033840;28;20222;-53
2023/09/14 02:20:18;;;;;;;2.77;2.67;;;16.90;99.90;;;;;;5033985;28;20262;-54
2023/09/14 02:22:45;;;;;;;3.13;2.93;;;16.90;99.90;;;;;;5034187;28;20206;-53
2023/09/14 02:25:12;;;;;;;3.27;3.10;;;16.90;99.90;;;;;;5034984;28;20845;-53
2023/09/14 02:27:39;;;;;;;2.93;2.83;;;16.90;99.90;;;;;;5036411;28;20191;-53
2023/09/14 02:30:08;;;;;;;3.67;3.47;;;16.90;99.90;;;;;;5032897;28;20222;-53
2023/09/14 02:32:35;;;;;;;3.07;2.77;;;17.00;99.90;;;;;;5033905;28;20210;-53
2023/09/14 02:35:04;;;;;;;3.07;2.87;;;17.00;99.90;;;;;;5032469;28;20202;-53
2023/09/14 02:37:31;;;;;;;3.57;3.47;;;17.00;99.90;;;;;;5029322;28;20222;-54
2023/09/14 02:39:58;;;;;;;3.80;3.60;;;17.00;99.90;;;;;;5049765;28;20222;-54
2023/09/14 02:42:25;;;;;;;4.30;4.00;;;17.00;99.90;;;;;;5033701;28;20268;-53
2023/09/14 02:44:51;;;;;;;4.77;4.33;;;17.00;99.90;;;;;;5033429;28;20252;-53
2023/09/14 02:47:18;;;;;;;2.90;2.80;;;17.00;99.90;;;;;;5033353;28;20673;-53
2023/09/14 02:49:45;;;;;;;3.60;3.40;;;17.00;99.90;;;;;;5040120;28;20221;-53
2023/09/14 02:52:14;;;;;;;4.43;4.07;;;17.00;99.90;;;;;;5034584;28;20209;-53
2023/09/14 02:54:40;;;;;;;3.03;2.93;;;16.90;99.90;;;;;;5049640;28;20198;-53
2023/09/14 02:57:07;;;;;;;3.80;3.60;;;16.90;99.90;;;;;;5048480;28;20225;-53
2023/09/14 02:59:34;;;;;;;3.70;3.50;;;16.90;99.90;;;;;;5041102;28;20725;-53
2023/09/14 03:02:02;;;;;;;4.27;4.00;;;16.90;99.90;;;;;;5043205;28;20206;-53
2023/09/14 03:04:29;;;;;;;3.83;3.63;;;16.90;99.90;;;;;;5044602;28;20301;-53
2023/09/14 03:06:56;;;;;;;3.97;3.67;;;16.90;99.90;;;;;;5046060;28;20198;-53
2023/09/14 03:09:25;;;;;;;4.03;3.63;;;16.90;99.90;;;;;;5044291;28;20427;-53
2023/09/14 03:11:52;;;;;;;4.03;3.73;;;16.90;99.90;;;;;;5053046;28;20259;-53
2023/09/14 03:14:20;;;;;;;3.77;3.60;;;17.00;99.90;;;;;;5044010;28;20252;-53
2023/09/14 03:16:46;;;;;;;3.17;3.00;;;17.00;99.90;;;;;;5041369;28;20210;-53
2023/09/14 03:19:13;;;;;;;3.93;3.73;;;17.00;99.90;;;;;;5042715;28;20301;-53
2023/09/14 03:21:40;;;;;;;4.07;3.70;;;16.90;99.90;;;;;;5048982;28;20194;-53
2023/09/14 03:24:07;;;;;;;3.97;3.77;;;17.00;99.90;;;;;;5039337;28;20198;-53
2023/09/14 03:26:35;;;;;;;4.40;3.87;;;16.90;99.90;;;;;;5039287;28;20195;-53
2023/09/14 03:29:02;;;;;;;3.93;3.63;;;16.90;99.90;;;;;;5036908;28;20265;-53
2023/09/14 03:31:29;;;;;;;4.23;3.93;;;16.90;99.90;;;;;;5047195;28;20580;-53
2023/09/14 03:33:56;;;;;;;4.17;3.87;;;16.90;99.90;;;;;;5052409;28;20288;-53
2023/09/14 03:36:23;;;;;;;4.00;3.80;;;16.90;99.90;;;;;;5051244;28;20222;-53
2023/09/14 03:38:50;;;;;;;4.30;4.10;;;16.90;99.90;;;;;;5042215;28;20222;-53
2023/09/14 03:41:17;;;;;;;5.13;4.83;;;16.90;99.90;;;;;;5032263;28;20198;-53
2023/09/14 03:43:46;;;;;;;4.27;4.07;;;16.90;99.90;;;;;;5049212;28;20202;-53
2023/09/14 03:46:15;;;;;;;4.83;4.43;;;16.90;99.90;;;;;;5051742;28;20259;-53
2023/09/14 03:48:42;;;;;;;4.20;3.93;;;16.90;99.90;;;;;;5052031;28;20312;-53
2023/09/14 03:51:09;;;;;;;4.13;3.47;;;16.90;99.90;;;;;;5051616;28;20201;-53
2023/09/14 03:53:36;;;;;;;4.30;4.00;;;16.90;99.90;;;;;;5039110;28;20631;-53
2023/09/14 03:56:04;;;;;;;4.60;4.40;;;16.90;99.90;;;;;;5033856;28;20198;-53
2023/09/14 03:58:32;;;;;;;4.47;4.27;;;16.90;99.90;;;;;;5036137;28;20218;-53
2023/09/14 04:01:00;;;;;;;3.90;3.70;;;17.00;99.90;;;;;;5048382;28;20198;-53
2023/09/14 04:03:27;;;;;;;4.97;4.57;;;17.00;99.90;;;;;;5031944;28;20206;-53
2023/09/14 04:05:54;;;;;;;4.00;3.73;;;17.00;99.90;;;;;;5038598;28;20775;-53
2023/09/14 04:08:22;;;;;;;4.00;3.80;;;17.00;99.90;;;;;;5045400;28;20315;-53
2023/09/14 04:10:51;;;;;;;5.13;4.73;;;17.00;99.90;;;;;;5046453;28;20550;-53
2023/09/14 04:13:32;;;;;;;4.20;4.00;;;17.00;99.90;;;;;;5043353;28;20205;-53
2023/09/14 04:16:01;;;;;;;4.63;4.23;;;17.00;99.90;;;;;;5051191;28;20217;-53
2023/09/14 04:18:29;;;;;;;4.80;4.40;;;17.00;99.90;;;;;;5035535;28;20273;-53
2023/09/14 04:20:56;;;;;;;5.33;4.87;;;17.00;99.90;;;;;;5038239;28;20668;-53
2023/09/14 04:23:23;;;;;;;4.43;4.13;;;17.00;99.90;;;;;;5045468;28;20256;-53
2023/09/14 04:25:51;;;;;;;4.77;4.57;;;17.00;99.90;;;;;;5051151;28;20248;-53
2023/09/14 04:28:21;;;;;;;4.77;4.57;;;17.00;99.90;;;;;;5040640;28;20208;-53
2023/09/14 04:30:49;;;;;;;4.27;4.07;;;17.00;99.90;;;;;;5038954;28;20718;-53
2023/09/14 04:33:18;;;;;;;2.83;2.73;;;17.00;99.90;;;;;;5026935;28;20658;-53
2023/09/14 04:35:46;;;;;;;2.50;2.50;;;17.00;99.90;;;;;;5026945;28;20207;-53
2023/09/14 04:38:13;;;;;;;2.20;2.10;;;17.00;99.90;;;;;;5019795;28;20350;-53
2023/09/14 04:40:43;;;;;;;2.40;2.30;;;17.00;99.90;;;;;;5029196;28;20264;-53
2023/09/14 04:43:10;;;;;;;2.20;2.20;;;17.00;99.90;;;;;;5024834;28;20202;-53
2023/09/14 04:45:37;;;;;;;2.40;2.30;;;17.00;99.90;;;;;;5030813;28;20199;-53
2023/09/14 04:48:05;;;;;;;3.33;2.83;;;17.10;99.90;;;;;;5038658;28;20195;-53
2023/09/14 04:50:33;;;;;;;3.00;2.80;;;17.00;99.90;;;;;;5031329;28;20223;-53
2023/09/14 04:53:00;;;;;;;2.77;2.67;;;17.00;99.90;;;;;;5031215;28;20206;-53
2023/09/14 04:55:27;;;;;;;3.17;3.07;;;17.00;99.90;;;;;;5027430;28;20272;-53
2023/09/14 04:57:54;;;;;;;2.37;2.27;;;17.00;99.90;;;;;;5017283;28;20701;-53
2023/09/14 05:00:21;;;;;;;4.43;4.03;;;17.00;99.90;;;;;;5024043;28;20218;-53
2023/09/14 05:02:48;;;;;;;3.47;3.27;;;17.00;99.90;;;;;;5028250;28;20566;-53
2023/09/14 05:05:15;;;;;;;3.00;2.80;;;17.00;99.90;;;;;;5028633;28;20257;-53
2023/09/14 05:07:44;;;;;;;2.53;2.43;;;17.00;99.90;;;;;;5021741;28;20203;-53
2023/09/14 05:10:11;;;;;;;3.67;3.47;;;17.00;99.90;;;;;;5022812;28;20227;-53
2023/09/14 05:12:38;;;;;;;4.33;4.13;;;17.00;99.90;;;;;;5023599;28;20206;-53
2023/09/14 05:15:06;;;;;;;3.77;3.67;;;17.10;99.90;;;;;;5023384;28;20682;-53
2023/09/14 05:17:36;;;;;;;4.20;3.93;;;17.10;99.90;;;;;;5026977;28;20218;-53
2023/09/14 05:20:06;;;;;;;4.20;3.80;;;17.10;99.90;;;;;;5022146;28;20313;-53
2023/09/14 05:22:33;;;;;;;4.43;4.23;;;17.10;99.90;;;;;;5022799;28;20198;-53
2023/09/14 05:25:03;;;;;;;3.47;3.37;;;17.10;99.90;;;;;;5024028;28;20589;-53
2023/09/14 05:27:35;;;;;;;4.27;4.07;;;17.10;99.90;;;;;;5021807;28;20207;-53
2023/09/14 05:30:03;;;;;;;3.80;3.70;;;17.10;99.90;;;;;;5022965;28;20364;-52
2023/09/14 05:32:30;;;;;;;4.63;4.33;;;17.10;99.90;;;;;;5029135;28;20749;-53
2023/09/14 05:34:57;;;;;;;5.63;5.27;;;17.10;99.90;;;;;;5024861;28;20210;-53
2023/09/14 05:37:24;;;;;;;4.83;4.53;;;17.10;99.90;;;;;;5026125;28;20232;-54
2023/09/14 05:39:51;;;;;;;4.80;4.53;;;17.20;99.90;;;;;;5026712;28;20280;-53
2023/09/14 05:42:21;;;;;;;4.77;4.57;;;17.20;99.90;;;;;;5025356;28;20208;-53
2023/09/14 05:44:49;;;;;;;4.60;4.20;;;17.20;99.90;;;;;;5028664;28;20289;-53
2023/09/14 05:47:16;;;;;;;4.90;4.67;;;17.20;99.90;;;;;;5025882;28;20203;-53
2023/09/14 05:49:45;;;;;;;4.37;4.07;;;17.20;99.90;;;;;;5024946;28;20242;-53
2023/09/14 05:52:11;;;;;;;5.17;4.87;;;17.20;99.90;;;;;;5023860;28;20709;-53
2023/09/14 05:54:39;;;;;;;5.70;5.40;;;17.30;99.90;;;;;;5026213;28;20256;-53
2023/09/14 05:57:06;;;;;;;5.40;5.10;;;17.30;99.90;;;;;;5030412;28;20713;-53
2023/09/14 05:59:35;;;;;;;5.33;4.83;;;17.40;99.90;;;;;;5029232;28;20313;-53
2023/09/14 06:02:02;;;;;;;6.97;6.50;;;17.40;99.90;;;;;;5032664;28;20210;-53
2023/09/14 06:04:28;;;;;;;5.70;5.30;;;17.60;99.90;;;;;;5021166;28;20195;-53
2023/09/14 06:06:55;;;;;;;6.80;6.07;;;17.70;99.90;;;;;;5025661;28;20207;-53
2023/09/14 06:09:29;;;;;;;6.10;5.70;;;17.80;99.90;;;;;;5029039;28;20222;-53
2023/09/14 06:11:56;;;;;;;5.80;5.40;;;17.90;99.90;;;;;;5028249;28;20927;-53
2023/09/14 06:14:24;;;;;;;6.77;6.17;;;17.90;99.90;;;;;;5029004;28;20248;-53
2023/09/14 06:16:53;;;;;;;6.67;6.20;;;17.90;99.90;;;;;;5030207;28;20619;-53
2023/09/14 06:19:20;;;;;;;6.67;6.07;;;18.00;99.90;;;;;;5031856;28;20276;-53
2023/09/14 06:21:47;;;;;;;6.23;5.83;;;17.90;99.90;;;;;;5020962;28;20262;-53
2023/09/14 06:24:15;;;;;;;5.83;5.53;;;17.90;99.90;;;;;;5029165;28;20194;-53
2023/09/14 06:26:42;;;;;;;7.10;6.60;;;17.90;99.90;;;;;;5026572;28;20204;-53
2023/09/14 06:29:12;;;;;;;6.40;6.00;;;17.80;99.90;;;;;;5032200;28;20653;-53
2023/09/14 06:31:40;;;;;;;7.03;6.50;;;17.80;99.90;;;;;;5021833;28;20207;-53
2023/09/14 06:34:08;;;;;;;7.23;6.73;;;17.80;99.90;;;;;;5025661;28;20722;-53
2023/09/14 06:36:35;;;;;;;7.37;6.87;;;17.70;99.90;;;;;;5023760;28;20269;-53
2023/09/14 06:39:02;;;;;;;7.97;7.37;;;17.70;99.90;;;;;;5028405;28;20639;-53
2023/09/14 06:41:29;;;;;;;5.30;5.00;;;17.70;99.90;;;;;;5028213;28;20268;-53
2023/09/14 06:43:56;;;;;;;7.03;6.43;;;17.60;99.90;;;;;;5025702;28;20202;-53
2023/09/14 06:46:23;;;;;;;8.20;7.53;;;17.60;99.90;;;;;;5022673;28;20956;-53
2023/09/14 06:48:50;;;;;;;9.90;9.03;;;17.60;99.90;;;;;;5031974;28;20214;-53
2023/09/14 06:51:19;;;;;;;8.60;7.87;;;17.60;99.90;;;;;;5023799;28;20645;-53
2023/09/14 06:53:46;;;;;;;7.67;7.17;;;17.60;99.90;;;;;;5029607;28;20678;-53
2023/09/14 06:56:13;;;;;;;8.40;7.70;;;17.60;99.90;;;;;;5031195;28;20384;-53
2023/09/14 06:58:40;;;;;;;8.90;8.03;;;17.70;99.90;;;;;;5031228;28;20698;-53
2023/09/14 07:01:07;;;;;;;8.90;8.10;;;17.80;99.90;;;;;;5029957;28;20207;-52
2023/09/14 07:03:36;;;;;;;10.13;8.93;;;17.80;99.90;;;;;;5031564;28;20260;-53
2023/09/14 07:06:03;;;;;;;9.07;8.27;;;17.90;99.90;;;;;;5030232;28;20245;-53
2023/09/14 07:08:31;;;;;;;8.43;7.73;;;17.90;99.90;;;;;;5026984;28;20202;-53
2023/09/14 07:10:58;;;;;;;7.93;7.23;;;17.90;99.90;;;;;;5028492;28;20260;-53
2023/09/14 07:13:25;;;;;;;7.67;7.17;;;18.00;99.90;;;;;;5025848;28;20202;-53
2023/09/14 07:15:52;;;;;;;7.87;7.23;;;18.00;99.90;;;;;;5029978;28;20234;-53
2023/09/14 07:18:31;;;;;;;9.23;8.33;;;18.00;99.90;;;;;;5025137;28;20767;-53
2023/09/14 07:21:01;;;;;;;8.20;7.50;;;18.10;99.90;;;;;;5021791;28;20252;-54
2023/09/14 07:23:28;;;;;;;7.67;7.07;;;18.20;99.90;;;;;;5026501;28;20285;-53
2023/09/14 07:25:57;;;;;;;10.20;9.30;;;18.30;99.90;;;;;;5031600;28;20603;-53
2023/09/14 07:28:24;;;;;;;9.03;8.33;;;18.40;99.90;;;;;;5026715;28;20229;-54
2023/09/14 07:30:52;;;;;;;9.50;8.80;;;18.40;99.90;;;;;;5021344;28;20261;-53
2023/09/14 07:33:20;;;;;;;8.67;8.03;;;18.50;99.90;;;;;;5029491;28;20207;-53
2023/09/14 07:35:47;;;;;;;8.43;7.60;;;18.50;99.90;;;;;;5021383;28;20206;-53
2023/09/14 07:38:14;;;;;;;8.97;8.37;;;18.60;99.90;;;;;;5031729;28;20717;-53
2023/09/14 07:40:41;;;;;;;7.20;6.57;;;18.70;99.90;;;;;;5031050;28;20256;-53
2023/09/14 07:43:10;;;;;;;7.53;7.03;;;18.90;99.90;;;;;;5023606;28;20690;-53
2023/09/14 07:45:38;;;;;;;7.90;7.20;;;18.90;99.90;;;;;;5031581;28;20221;-53
2023/09/14 07:48:06;;;;;;;8.43;7.73;;;19.00;99.90;;;;;;5032070;28;20226;-53
2023/09/14 07:50:35;;;;;;;7.77;7.27;;;19.20;99.90;;;;;;5031710;28;20226;-53
2023/09/14 07:53:03;;;;;;;9.43;8.53;;;19.30;99.90;;;;;;5029951;28;20202;-53
2023/09/14 07:55:30;;;;;;;9.53;8.63;;;19.50;99.90;;;;;;5025332;28;20235;-53
2023/09/14 07:57:57;;;;;;;7.40;6.70;;;19.50;99.90;;;;;;5023010;28;20252;-52
2023/09/14 08:00:25;;;;;;;8.93;8.23;;;19.60;99.90;;;;;;5038160;28;20218;-52
2023/09/14 08:02:52;;;;;;;7.27;6.67;;;19.60;99.90;;;;;;5031470;28;20206;-53
2023/09/14 08:05:19;;;;;;;7.50;6.80;;;19.60;99.90;;;;;;5037149;28;20206;-53
2023/09/14 08:07:46;;;;;;;7.87;6.77;;;19.50;99.90;;;;;;5031666;28;20210;-53
2023/09/14 08:10:13;;;;;;;8.07;7.37;;;19.60;99.90;;;;;;5034671;28;20302;-53
2023/09/14 08:12:40;;;;;;;8.00;7.30;;;19.60;99.90;;;;;;5031587;28;20198;-53
2023/09/14 08:15:08;;;;;;;7.10;6.50;;;19.60;99.90;;;;;;5023703;28;20206;-53
2023/09/14 08:17:36;;;;;;;6.60;6.20;;;19.70;99.90;;;;;;5029570;28;20282;-53
2023/09/14 08:20:04;;;;;;;7.53;6.87;;;19.60;99.90;;;;;;5019339;28;20231;-53
2023/09/14 08:22:31;;;;;;;7.83;7.23;;;19.60;99.90;;;;;;5016002;28;20199;-53
2023/09/14 08:25:00;;;;;;;7.80;7.13;;;19.70;99.90;;;;;;5028779;28;20225;-53
2023/09/14 08:27:29;;;;;;;7.40;6.80;;;19.70;99.90;;;;;;5037501;28;20208;-53
2023/09/14 08:29:56;;;;;;;7.50;6.90;;;19.70;99.90;;;;;;5030966;28;20223;-53
2023/09/14 08:32:24;;;;;;;7.53;7.00;;;19.90;99.90;;;;;;5028528;28;20636;-53
2023/09/14 08:34:57;;;;;;;8.63;7.97;;;20.20;99.90;;;;;;5030385;28;20625;-53
2023/09/14 08:37:24;;;;;;;7.90;7.30;;;20.40;99.90;;;;;;5021754;28;20619;-53
2023/09/14 08:39:51;;;;;;;7.97;7.40;;;20.70;99.90;;;;;;5022451;28;20257;-53
2023/09/14 08:42:19;;;;;;;9.03;8.13;;;21.00;99.90;;;;;;5021167;28;20206;-53
2023/09/14 08:44:50;;;;;;;7.67;6.97;;;21.40;99.90;;;;;;5029947;28;20210;-52
2023/09/14 08:47:18;;;;;;;8.30;7.60;;;21.60;99.90;;;;;;5029836;28;20198;-53
2023/09/14 08:49:46;;;;;;;7.80;7.17;;;21.60;99.90;;;;;;5025374;28;20769;-53
2023/09/14 08:52:17;;;;;;;8.97;7.47;;;21.90;99.90;;;;;;5025151;28;20272;-53
2023/09/14 08:54:44;;;;;;;8.23;7.70;;;21.90;99.90;;;;;;5029334;28;20202;-52
2023/09/14 08:57:13;;;;;;;8.67;7.87;;;22.00;99.90;;;;;;5030208;28;20293;-53
2023/09/14 08:59:40;;;;;;;10.33;9.33;;;22.10;99.90;;;;;;5025236;28;20226;-53
2023/09/14 09:02:11;;;;;;;9.37;8.67;;;22.50;99.90;;;;;;5029713;28;20210;-53
2023/09/14 09:04:39;;;;;;;8.03;7.43;;;22.70;99.90;;;;;;5022704;28;20673;-53
2023/09/14 09:07:07;;;;;;;8.53;7.70;;;22.80;99.90;;;;;;5026943;28;20744;-52
2023/09/14 09:09:37;;;;;;;9.60;8.80;;;23.10;99.90;;;;;;5028321;28;20221;-53
2023/09/14 09:12:04;;;;;;;8.77;8.07;;;23.40;99.90;;;;;;5023903;28;20586;-53
2023/09/14 09:14:32;;;;;;;9.73;8.83;;;23.40;99.90;;;;;;5024939;28;20206;-53
2023/09/14 09:16:59;;;;;;;13.57;9.60;;;23.10;99.90;;;;;;5024659;28;20633;-53
2023/09/14 09:19:29;;;;;;;13.83;10.37;;;22.20;99.90;;;;;;5024019;28;20226;-53
2023/09/14 09:21:57;;;;;;;11.37;10.23;;;21.90;99.90;;;;;;5029914;28;20203;-53
2023/09/14 09:24:27;;;;;;;11.93;10.80;;;21.70;99.90;;;;;;5017370;28;20206;-53
2023/09/14 09:26:56;;;;;;;14.10;12.57;;;21.70;99.90;;;;;;5030407;28;20671;-53
2023/09/14 09:29:23;;;;;;;13.50;12.03;;;21.90;99.90;;;;;;5025922;28;20304;-53
2023/09/14 09:31:51;;;;;;;14.23;12.83;;;22.30;99.90;;;;;;5028463;28;20608;-53
2023/09/14 09:34:26;;;;;;;13.30;11.27;;;22.70;99.90;;;;;;5023364;28;20238;-53
2023/09/14 09:36:56;;;;;;;13.83;12.43;;;23.20;99.90;;;;;;5022001;28;20198;-53
2023/09/14 09:39:23;;;;;;;13.83;12.57;;;22.60;99.90;;;;;;5024077;28;20287;-53
2023/09/14 09:41:50;;;;;;;13.53;12.33;;;23.10;99.90;;;;;;5023125;28;20268;-54
2023/09/14 09:44:27;;;;;;;13.63;12.23;;;24.10;99.90;;;;;;5025742;28;20203;-53
2023/09/14 09:46:57;;;;;;;14.57;13.17;;;24.60;99.90;;;;;;5022800;28;20233;-53
2023/09/14 09:49:24;;;;;;;14.97;13.47;;;25.00;99.90;;;;;;5022080;28;20253;-53
2023/09/14 09:51:52;;;;;;;14.20;12.80;;;25.50;99.90;;;;;;5021724;28;20203;-53
2023/09/14 09:54:24;;;;;;;12.90;11.77;;;25.70;99.90;;;;;;5023524;28;20627;-53
2023/09/14 09:56:52;;;;;;;13.47;12.27;;;25.40;99.90;;;;;;5024041;28;20198;-53
2023/09/14 09:59:29;;;;;;;13.30;11.93;;;25.00;99.90;;;;;;5025449;28;20223;-53
2023/09/14 10:01:56;;;;;;;13.27;11.97;;;24.30;99.90;;;;;;5023617;28;20267;-53
2023/09/14 10:04:28;;;;;;;12.97;11.90;;;24.10;99.90;;;;;;5023672;28;20264;-53
2023/09/14 10:06:55;;;;;;;14.00;12.80;;;23.70;99.90;;;;;;5022452;28;20678;-53
2023/09/14 10:09:26;;;;;;;13.50;12.10;;;23.50;99.90;;;;;;5021048;28;20599;-53
2023/09/14 10:11:54;;;;;;;12.97;11.77;;;23.70;99.90;;;;;;5030930;28;20277;-53
2023/09/14 10:14:28;;;;;;;12.13;10.93;;;24.20;99.90;;;;;;5030859;28;20297;-53
2023/09/14 10:16:57;;;;;;;13.37;12.17;;;24.20;99.90;;;;;;5033337;28;20260;-53
2023/09/14 10:19:25;;;;;;;13.97;12.60;;;24.30;99.90;;;;;;5033473;28;20230;-53
2023/09/14 10:21:53;;;;;;;13.50;12.30;;;23.90;99.90;;;;;;5027827;28;20675;-53
2023/09/14 10:24:22;;;;;;;15.37;13.70;;;23.30;99.90;;;;;;5030555;28;20206;-53
2023/09/14 10:26:51;;;;;;;13.13;11.73;;;23.20;99.90;;;;;;5038408;28;20690;-59
2023/09/14 10:29:24;;;;;;;15.10;13.60;;;23.20;99.90;;;;;;5033420;28;20305;-54
2023/09/14 10:31:56;;;;;;;13.50;12.27;;;22.90;99.90;;;;;;5032168;28;20625;-54
2023/09/14 10:34:24;;;;;;;13.53;12.13;;;22.80;99.90;;;;;;5036752;28;20700;-53
2023/09/14 10:36:52;;;;;;;13.37;12.17;;;22.80;99.90;;;;;;5029648;28;20206;-54
2023/09/14 10:39:24;;;;;;;14.37;12.70;;;23.10;99.90;;;;;;5032945;28;20222;-54
2023/09/14 10:41:51;;;;;;;13.63;12.30;;;23.80;99.90;;;;;;5033079;28;20202;-54
2023/09/14 10:44:18;;;;;;;15.27;12.93;;;23.90;99.90;;;;;;5033000;28;20202;-53
2023/09/14 10:46:47;;;;;;;18.03;14.50;;;23.70;99.90;;;;;;5027960;28;20199;-54
2023/09/14 10:49:24;;;;;;;16.57;13.67;;;23.60;99.90;;;;;;5025480;28;20694;-55
2023/09/14 10:51:51;;;;;;;16.27;14.20;;;23.40;99.90;;;;;;5023403;28;20206;-57
2023/09/14 10:54:25;;;;;;;16.90;14.97;;;23.30;99.90;;;;;;5024372;28;20219;-59
2023/09/14 10:56:56;;;;;;;13.40;12.00;;;23.40;99.90;;;;;;5026072;28;20253;-60
2023/09/14 10:59:48;;;;;;;14.47;13.03;;;23.60;99.90;;;;;;5022102;28;20924;-60
2023/09/14 11:02:57;;;;;;;14.63;13.13;;;23.80;99.90;;;;;;5022390;28;20265;-57
2023/09/14 11:05:26;;;;;;;12.73;11.53;;;23.80;99.90;;;;;;4985592;28;20292;-58
2023/09/14 11:07:59;;;;;;;14.27;12.97;;;23.90;99.90;;;;;;5030721;28;20198;-58
2023/09/14 11:10:29;;;;;;;12.83;11.53;;;23.90;99.90;;;;;;5029346;28;20301;-58
2023/09/14 11:13:28;;;;;;;12.03;11.00;;;24.00;99.90;;;;;;5028050;28;20767;-59
2023/09/14 11:15:57;;;;;;;10.47;9.47;;;23.80;99.90;;;;;;5018280;28;20202;-58
2023/09/14 11:18:50;;;;;;;12.27;11.10;;;23.90;99.90;;;;;;5029180;28;20206;-60
2023/09/14 11:21:42;;;;;;;12.03;10.87;;;23.80;99.90;;;;;;5028158;28;20714;-59
2023/09/14 11:24:10;;;;;;;11.37;10.37;;;23.50;99.90;;;;;;5026843;28;20202;-59
2023/09/14 11:26:44;;;;;;;11.37;10.47;;;23.40;99.90;;;;;;5026067;28;20670;-59
2023/09/14 11:29:12;;;;;;;10.43;9.53;;;23.60;99.90;;;;;;5030813;28;20249;-57
2023/09/14 11:31:40;;;;;;;10.43;9.53;;;23.60;99.90;;;;;;5019632;28;20330;-57
2023/09/14 11:34:11;;;;;;;12.23;11.03;;;24.00;99.90;;;;;;5029764;28;20194;-57
2023/09/14 11:36:40;;;;;;;11.50;10.60;;;23.90;99.90;;;;;;5030540;28;20199;-57
2023/09/14 11:39:11;;;;;;;13.13;11.83;;;24.00;99.90;;;;;;5027510;28;20223;-56
2023/09/14 11:41:56;;;;;;;14.10;12.43;;;23.90;99.90;;;;;;5031014;28;20693;-58
2023/09/14 11:44:24;;;;;;;13.07;11.87;;;23.70;99.90;;;;;;5020542;28;20205;-57
2023/09/14 11:46:51;;;;;;;12.80;11.63;;;23.70;99.90;;;;;;5021333;28;20201;-57
2023/09/14 11:49:22;;;;;;;12.53;11.40;;;23.70;99.90;;;;;;5021400;28;20222;-57
2023/09/14 11:51:53;;;;;;;12.10;11.10;;;23.70;99.90;;;;;;5025147;28;22208;-57
2023/09/14 11:54:20;;;;;;;14.53;11.57;;;23.60;99.90;;;;;;5024933;28;20354;-58
2023/09/14 11:56:48;;;;;;;11.07;10.07;;;23.40;99.90;;;;;;5019716;28;20230;-58
2023/09/14 11:59:28;;;;;;;12.87;11.73;;;23.30;99.90;;;;;;5020403;28;20227;-58
2023/09/14 12:01:55;;;;;;;13.13;11.90;;;23.40;99.90;;;;;;5020765;28;20676;-58
2023/09/14 12:04:27;;;;;;;12.20;11.03;;;23.20;99.90;;;;;;5026002;28;20260;-56
2023/09/14 12:06:55;;;;;;;11.60;10.63;;;22.90;99.90;;;;;;5024783;28;20210;-56
2023/09/14 12:09:39;;;;;;;11.13;10.20;;;23.00;99.90;;;;;;5021274;28;20226;-56
2023/09/14 12:12:07;;;;;;;11.70;10.60;;;23.20;99.90;;;;;;5024453;28;20285;-53
2023/09/14 12:14:35;;;;;;;10.93;9.93;;;23.20;99.90;;;;;;5026069;28;20709;-53
2023/09/14 12:17:02;;;;;;;12.97;11.77;;;23.20;99.90;;;;;;5028634;28;20285;-53
2023/09/14 12:19:29;;;;;;;11.87;10.87;;;23.20;99.90;;;;;;5031833;28;20230;-53
2023/09/14 12:21:58;;;;;;;13.33;11.77;;;23.20;99.90;;;;;;5030946;28;20689;-53
2023/09/14 12:24:25;;;;;;;12.27;11.07;;;23.30;99.90;;;;;;5031109;28;20582;-53
2023/09/14 12:26:53;;;;;;;12.80;11.63;;;23.40;99.90;;;;;;5030581;28;20207;-54
2023/09/14 12:29:25;;;;;;;11.50;10.50;;;23.50;99.90;;;;;;5026971;28;20229;-53
2023/09/14 12:31:52;;;;;;;11.07;9.77;;;23.60;99.90;;;;;;5029786;28;20288;-53
2023/09/14 12:34:19;;;;;;;11.20;10.17;;;23.80;99.90;;;;;;5034888;28;20689;-53
2023/09/14 12:36:46;;;;;;;11.17;10.27;;;23.80;99.90;;;;;;5030732;28;20288;-53
2023/09/14 12:39:15;;;;;;;10.20;9.37;;;23.90;99.90;;;;;;5028550;28;20241;-53
2023/09/14 12:41:43;;;;;;;13.27;11.70;;;23.90;99.90;;;;;;5030906;28;20206;-53
2023/09/14 12:44:10;;;;;;;11.20;10.13;;;23.90;99.90;;;;;;5026959;28;20286;-54
2023/09/14 12:46:38;;;;;;;12.93;11.77;;;23.90;99.90;;;;;;5024451;28;20202;-53
2023/09/14 12:49:06;;;;;;;13.90;12.50;;;23.90;99.90;;;;;;5018244;28;20218;-54